Time;durP1;ratioP1;P1;durP2;ratioP2;P2;SDS_P1;SDS_P2;PMS_P1;PMS_P2;Temp;Humidity;BMP_temperature;BMP_pressure;BME280_temperature;BME280_humidity;BME280_pressure;Samples;Min_cycle;Max_cycle;Signal;HPM_P1;HPM_P2
2023/03/04 00:01:36;;;;;;;42.37;21.77;;;0.70;99.90;;;;;;6172952;28;20054;-77
2023/03/04 00:04:38;;;;;;;41.67;22.97;;;0.80;99.90;;;;;;6171250;28;20050;-78
2023/03/04 00:07:40;;;;;;;46.20;24.83;;;0.80;99.90;;;;;;6173289;28;20042;-77
2023/03/04 00:10:43;;;;;;;44.30;23.87;;;0.90;99.90;;;;;;6173777;28;20055;-77
2023/03/04 00:13:45;;;;;;;47.77;26.20;;;0.80;99.90;;;;;;6172824;28;20532;-77
2023/03/04 00:16:48;;;;;;;56.43;25.93;;;0.90;99.90;;;;;;6174521;28;20051;-77
2023/03/04 00:19:49;;;;;;;43.30;22.83;;;0.90;99.90;;;;;;6174209;28;20070;-77
2023/03/04 00:22:51;;;;;;;45.63;26.20;;;0.90;99.90;;;;;;6174588;28;20501;-77
2023/03/04 00:25:54;;;;;;;57.80;28.20;;;1.00;99.90;;;;;;6174088;28;20070;-77
2023/03/04 00:28:56;;;;;;;59.13;28.77;;;1.00;99.90;;;;;;6172058;28;20058;-77
2023/03/04 00:31:59;;;;;;;51.30;26.33;;;1.00;99.90;;;;;;6173878;28;20043;-77
2023/03/04 00:35:01;;;;;;;52.53;28.73;;;1.00;99.90;;;;;;6174645;28;20094;-77
2023/03/04 00:38:02;;;;;;;51.60;27.97;;;1.10;99.90;;;;;;6177859;28;20051;-77
2023/03/04 00:41:06;;;;;;;56.40;29.07;;;1.10;99.90;;;;;;6179033;28;20055;-78
2023/03/04 00:44:09;;;;;;;59.53;29.27;;;1.20;99.90;;;;;;6178121;28;20054;-77
2023/03/04 00:47:11;;;;;;;57.70;30.43;;;1.20;99.90;;;;;;6178375;28;20387;-77
2023/03/04 00:50:13;;;;;;;66.20;32.67;;;1.20;99.90;;;;;;6170511;28;20051;-77
2023/03/04 00:53:14;;;;;;;59.13;29.57;;;1.20;99.90;;;;;;6166357;28;20050;-77
2023/03/04 00:56:18;;;;;;;61.00;29.73;;;1.20;99.90;;;;;;6180334;28;20053;-77
2023/03/04 00:59:19;;;;;;;49.63;28.63;;;1.30;99.90;;;;;;6194366;28;20038;-77
2023/03/04 01:02:21;;;;;;;63.00;28.47;;;1.20;99.90;;;;;;6195295;28;20065;-77
2023/03/04 01:05:23;;;;;;;65.73;32.00;;;1.30;99.90;;;;;;6193413;28;20065;-77
2023/03/04 01:08:24;;;;;;;62.40;33.03;;;1.30;99.90;;;;;;6188849;28;20043;-76
2023/03/04 01:11:27;;;;;;;69.50;32.80;;;1.30;99.90;;;;;;6199389;28;20042;-77
2023/03/04 01:14:29;;;;;;;65.57;30.23;;;1.30;99.90;;;;;;6201965;28;20054;-78
2023/03/04 01:17:31;;;;;;;57.20;31.60;;;1.30;99.90;;;;;;6200988;28;20053;-77
2023/03/04 01:20:33;;;;;;;63.23;31.20;;;1.20;99.90;;;;;;6201402;28;20073;-77
2023/03/04 01:23:34;;;;;;;55.93;31.57;;;1.20;99.90;;;;;;6200488;28;20129;-77
2023/03/04 01:26:38;;;;;;;57.73;27.90;;;1.10;99.90;;;;;;6204046;28;20064;-77
2023/03/04 01:29:40;;;;;;;59.10;25.80;;;1.00;99.90;;;;;;6202589;28;20046;-77
2023/03/04 01:32:45;;;;;;;60.30;28.27;;;0.90;99.90;;;;;;6198048;28;20125;-77
2023/03/04 01:35:48;;;;;;;58.13;29.00;;;0.80;99.90;;;;;;6201028;28;20049;-77
2023/03/04 01:38:50;;;;;;;62.30;27.50;;;0.70;99.90;;;;;;6203302;28;20254;-77
2023/03/04 01:41:54;;;;;;;55.73;28.30;;;0.60;99.90;;;;;;6199908;28;20058;-78
2023/03/04 01:44:56;;;;;;;59.17;30.77;;;0.50;99.90;;;;;;6200859;28;20069;-78
2023/03/04 01:47:58;;;;;;;67.33;30.57;;;0.40;99.90;;;;;;6199918;28;20073;-77
2023/03/04 01:51:01;;;;;;;56.63;27.53;;;0.40;99.90;;;;;;6199204;28;20417;-77
2023/03/04 01:54:04;;;;;;;51.83;27.13;;;0.30;99.90;;;;;;6200158;28;20470;-77
2023/03/04 01:57:17;;;;;;;65.80;30.63;;;0.20;99.90;;;;;;6197898;28;20142;-77
2023/03/04 02:00:25;;;;;;;56.87;28.00;;;0.20;99.90;;;;;;6198667;28;20720;-76
2023/03/04 02:03:27;;;;;;;57.53;26.83;;;0.00;99.90;;;;;;6199460;28;20153;-77
2023/03/04 02:06:29;;;;;;;48.53;23.40;;;0.00;99.90;;;;;;6199858;28;20053;-76
2023/03/04 02:09:33;;;;;;;60.50;28.43;;;-0.10;99.90;;;;;;6199236;28;20053;-77
2023/03/04 02:12:36;;;;;;;54.97;28.30;;;-0.20;99.90;;;;;;6197698;28;20053;-77
2023/03/04 02:15:39;;;;;;;53.43;25.63;;;-0.20;99.90;;;;;;6197862;28;20422;-77
2023/03/04 02:18:40;;;;;;;61.93;28.17;;;-0.30;99.90;;;;;;6199387;28;20061;-77
2023/03/04 02:21:43;;;;;;;62.60;27.70;;;-0.30;99.90;;;;;;6199676;28;20050;-77
2023/03/04 02:24:50;;;;;;;55.23;25.47;;;-0.40;99.90;;;;;;6198554;28;20124;-77
2023/03/04 02:27:53;;;;;;;60.60;28.90;;;-0.50;99.90;;;;;;6198779;28;20046;-77
2023/03/04 02:30:55;;;;;;;58.93;31.00;;;-0.50;99.90;;;;;;6199119;28;20057;-77
2023/03/04 02:33:58;;;;;;;59.93;29.27;;;-0.60;99.90;;;;;;6199453;28;20054;-77
2023/03/04 02:37:02;;;;;;;52.93;28.37;;;-0.70;99.90;;;;;;6198936;28;20053;-77
2023/03/04 02:40:05;;;;;;;59.00;24.60;;;-0.70;99.90;;;;;;6198375;28;20046;-77
2023/03/04 02:43:11;;;;;;;58.53;27.27;;;-0.80;99.90;;;;;;6198414;28;20057;-77
2023/03/04 02:46:13;;;;;;;58.77;26.37;;;-0.80;99.90;;;;;;6200706;28;20054;-77
2023/03/04 02:49:15;;;;;;;55.97;24.23;;;-0.80;99.90;;;;;;6201304;28;20523;-77
2023/03/04 02:52:19;;;;;;;67.03;29.87;;;-0.80;99.90;;;;;;6200611;28;20050;-77
2023/03/04 02:55:21;;;;;;;59.77;26.00;;;-0.90;99.90;;;;;;6200837;28;20043;-77
2023/03/04 02:58:24;;;;;;;51.67;26.80;;;-0.90;99.90;;;;;;6200223;28;20050;-77
2023/03/04 03:01:28;;;;;;;55.80;27.70;;;-1.00;99.90;;;;;;6198000;28;20046;-77
2023/03/04 03:04:30;;;;;;;63.50;27.43;;;-1.00;99.90;;;;;;6198133;28;20365;-77
2023/03/04 03:07:33;;;;;;;65.83;31.73;;;-1.10;99.90;;;;;;6197710;28;20034;-77
2023/03/04 03:10:35;;;;;;;66.30;27.17;;;-1.10;99.90;;;;;;6198975;28;20486;-77
2023/03/04 03:13:38;;;;;;;66.90;29.67;;;-1.10;99.90;;;;;;6198049;28;20421;-77
2023/03/04 03:16:40;;;;;;;64.07;30.80;;;-1.10;99.90;;;;;;6223521;23;20247;-80
2023/03/04 03:19:41;;;;;;;69.40;29.97;;;-1.20;99.90;;;;;;6225984;28;20050;-82
2023/03/04 03:22:43;;;;;;;72.10;31.83;;;-1.20;99.90;;;;;;6224733;28;20078;-80
2023/03/04 03:25:45;;;;;;;83.47;34.40;;;-1.20;99.90;;;;;;6224319;28;20042;-82
2023/03/04 03:28:48;;;;;;;78.20;33.80;;;-1.20;99.90;;;;;;6225307;28;20050;-82
2023/03/04 03:31:50;;;;;;;75.30;30.80;;;-1.20;99.90;;;;;;6225503;28;20519;-80
2023/03/04 03:34:51;;;;;;;77.73;32.53;;;-1.10;99.90;;;;;;6225069;28;20090;-79
2023/03/04 03:37:53;;;;;;;73.47;33.33;;;-1.10;99.90;;;;;;6225431;28;20061;-82
2023/03/04 03:40:55;;;;;;;71.40;33.47;;;-1.20;99.90;;;;;;6224214;28;20227;-78
2023/03/04 03:43:58;;;;;;;80.70;36.83;;;-1.20;99.90;;;;;;6223975;28;20419;-80
2023/03/04 03:46:59;;;;;;;85.37;37.33;;;-1.20;99.90;;;;;;6224508;28;20495;-81
2023/03/04 03:50:01;;;;;;;78.00;35.87;;;-1.20;99.90;;;;;;6225013;28;20133;-79
2023/03/04 03:53:03;;;;;;;76.63;34.13;;;-1.10;99.90;;;;;;6223972;28;20504;-81
2023/03/04 03:56:05;;;;;;;86.50;35.33;;;-1.20;99.90;;;;;;6224236;28;20046;-80
2023/03/04 03:59:08;;;;;;;78.97;31.90;;;-1.20;99.90;;;;;;6223758;28;20626;-81
2023/03/04 04:02:10;;;;;;;83.33;37.50;;;-1.20;99.90;;;;;;6225109;28;20057;-81
2023/03/04 04:05:12;;;;;;;78.70;32.77;;;-1.30;99.90;;;;;;6224159;28;20523;-80
2023/03/04 04:08:14;;;;;;;69.63;31.73;;;-1.30;99.90;;;;;;6224381;28;20129;-81
2023/03/04 04:11:16;;;;;;;80.30;34.30;;;-1.30;99.90;;;;;;6223769;28;20061;-81
2023/03/04 04:14:19;;;;;;;82.97;34.67;;;-1.30;99.90;;;;;;6225276;28;20054;-81
2023/03/04 04:17:21;;;;;;;75.07;29.80;;;-1.40;99.90;;;;;;6224592;28;20045;-82
2023/03/04 04:20:23;;;;;;;73.63;33.03;;;-1.40;99.90;;;;;;6224872;28;20049;-82
2023/03/04 04:23:25;;;;;;;75.07;31.10;;;-1.40;99.90;;;;;;6224723;28;20393;-82
2023/03/04 04:26:26;;;;;;;72.63;32.80;;;-1.50;99.90;;;;;;6226086;28;20053;-81
2023/03/04 04:29:30;;;;;;;73.97;32.10;;;-1.50;99.90;;;;;;6225210;28;20065;-81
2023/03/04 04:32:31;;;;;;;77.57;33.93;;;-1.60;99.90;;;;;;6225205;28;20046;-81
2023/03/04 04:35:35;;;;;;;73.77;30.00;;;-1.60;99.90;;;;;;6224803;28;20059;-80
2023/03/04 04:38:36;;;;;;;86.07;32.87;;;-1.60;99.90;;;;;;6225028;28;20053;-81
2023/03/04 04:41:40;;;;;;;78.83;34.47;;;-1.60;99.90;;;;;;6224000;28;20385;-79
2023/03/04 04:44:43;;;;;;;72.63;28.93;;;-1.60;99.90;;;;;;6224482;28;20145;-82
2023/03/04 04:47:44;;;;;;;72.10;31.17;;;-1.60;99.90;;;;;;6224696;28;20038;-81
2023/03/04 04:50:46;;;;;;;77.10;34.87;;;-1.70;99.90;;;;;;6225297;28;20164;-80
2023/03/04 04:53:48;;;;;;;80.43;31.67;;;-1.70;99.90;;;;;;6223821;28;20052;-82
2023/03/04 04:56:50;;;;;;;84.87;34.97;;;-1.80;99.90;;;;;;6224551;28;20042;-82
2023/03/04 04:59:53;;;;;;;74.13;30.77;;;-1.80;99.90;;;;;;6224044;28;20050;-80
2023/03/04 05:02:54;;;;;;;71.60;33.10;;;-1.80;99.90;;;;;;6224696;28;20091;-81
2023/03/04 05:05:56;;;;;;;82.97;35.80;;;-1.90;99.90;;;;;;6225237;28;20062;-81
2023/03/04 05:08:58;;;;;;;73.83;30.23;;;-1.90;99.90;;;;;;6224598;28;20132;-81
2023/03/04 05:12:00;;;;;;;78.93;30.07;;;-1.90;99.90;;;;;;6224010;28;20061;-81
2023/03/04 05:15:03;;;;;;;76.83;32.20;;;-2.00;99.90;;;;;;6225230;28;20109;-78
2023/03/04 05:18:05;;;;;;;71.53;29.63;;;-2.00;99.90;;;;;;6224771;28;20057;-82
2023/03/04 05:21:07;;;;;;;77.40;34.90;;;-2.10;99.90;;;;;;6224847;28;20057;-80
2023/03/04 05:24:09;;;;;;;77.37;31.27;;;-2.10;99.90;;;;;;6228850;28;20061;-79
2023/03/04 05:27:11;;;;;;;71.80;32.80;;;-2.10;99.90;;;;;;6228630;28;20056;-80
2023/03/04 05:30:14;;;;;;;86.87;35.10;;;-2.10;99.90;;;;;;6229595;28;20053;-80
2023/03/04 05:33:17;;;;;;;73.83;31.60;;;-2.10;99.90;;;;;;6228916;28;20534;-80
2023/03/04 05:36:19;;;;;;;74.03;31.23;;;-2.20;99.90;;;;;;6232277;28;20049;-79
2023/03/04 05:39:20;;;;;;;78.10;31.70;;;-2.10;99.90;;;;;;6231982;28;20050;-80
2023/03/04 05:42:22;;;;;;;76.07;30.50;;;-2.10;99.90;;;;;;6230540;28;20053;-80
2023/03/04 05:45:26;;;;;;;79.40;31.73;;;-2.10;99.90;;;;;;6230855;28;20053;-80
2023/03/04 05:48:28;;;;;;;94.83;34.03;;;-2.10;99.90;;;;;;6231011;28;20038;-81
2023/03/04 05:51:30;;;;;;;76.37;33.80;;;-2.10;99.90;;;;;;6229904;28;20054;-80
2023/03/04 05:54:32;;;;;;;84.77;30.93;;;-2.10;99.90;;;;;;6232622;28;20061;-80
2023/03/04 05:57:33;;;;;;;72.40;33.90;;;-2.20;99.90;;;;;;6232384;28;20049;-80
2023/03/04 06:00:36;;;;;;;87.97;32.57;;;-2.20;99.90;;;;;;6246865;28;20050;-81
2023/03/04 06:03:38;;;;;;;90.53;33.93;;;-2.10;99.90;;;;;;6249656;28;20046;-81
2023/03/04 06:06:40;;;;;;;80.43;30.60;;;-2.20;99.90;;;;;;6232158;28;20050;-80
2023/03/04 06:09:43;;;;;;;78.30;32.33;;;-2.20;99.90;;;;;;6230410;28;20056;-80
2023/03/04 06:12:45;;;;;;;75.23;31.13;;;-2.20;99.90;;;;;;6227853;28;20587;-81
2023/03/04 06:15:54;;;;;;;80.40;30.77;;;-2.30;99.90;;;;;;6226741;28;20041;-80
2023/03/04 06:18:56;;;;;;;88.80;36.13;;;-2.30;99.90;;;;;;6225739;28;20045;-80
2023/03/04 06:21:57;;;;;;;73.97;30.90;;;-2.30;99.90;;;;;;6226548;28;20050;-79
2023/03/04 06:24:59;;;;;;;78.83;33.37;;;-2.30;99.90;;;;;;6226308;28;20054;-79
2023/03/04 06:28:01;;;;;;;66.40;30.97;;;-2.30;99.90;;;;;;6225579;28;20052;-79
2023/03/04 06:31:04;;;;;;;80.60;32.90;;;-2.30;99.90;;;;;;6225831;28;20061;-80
2023/03/04 06:34:06;;;;;;;81.50;33.80;;;-2.20;99.90;;;;;;6226066;28;20056;-79
2023/03/04 06:37:07;;;;;;;86.30;36.30;;;-2.20;99.90;;;;;;6225286;28;20069;-80
2023/03/04 06:40:10;;;;;;;67.47;29.43;;;-2.20;99.90;;;;;;6225616;28;20053;-79
2023/03/04 06:43:12;;;;;;;80.13;31.53;;;-2.10;99.90;;;;;;6225326;28;20097;-79
2023/03/04 06:46:15;;;;;;;72.67;30.57;;;-2.00;99.90;;;;;;6225638;28;20061;-79
2023/03/04 06:49:17;;;;;;;72.17;30.63;;;-2.00;99.90;;;;;;6225322;28;20044;-79
2023/03/04 06:52:19;;;;;;;76.27;30.87;;;-1.90;99.90;;;;;;6225035;28;20050;-80
2023/03/04 06:55:20;;;;;;;87.67;33.50;;;-1.80;99.90;;;;;;6224722;28;20412;-79
2023/03/04 06:58:22;;;;;;;91.47;31.60;;;-1.70;99.90;;;;;;6225827;28;20046;-79
2023/03/04 07:01:27;;;;;;;83.97;31.90;;;-1.50;99.90;;;;;;6224965;28;20072;-79
2023/03/04 07:04:29;;;;;;;68.93;33.57;;;-1.40;99.90;;;;;;6225673;28;20046;-79
2023/03/04 07:07:31;;;;;;;68.73;30.07;;;-1.30;99.90;;;;;;6225806;28;20504;-79
2023/03/04 07:10:32;;;;;;;79.43;34.57;;;-1.10;99.90;;;;;;6225863;28;20046;-79
2023/03/04 07:13:37;;;;;;;76.77;33.67;;;-0.90;99.90;;;;;;6225061;28;20054;-80
2023/03/04 07:16:40;;;;;;;88.83;32.97;;;-0.70;99.90;;;;;;6225882;28;20078;-80
2023/03/04 07:19:42;;;;;;;70.27;32.30;;;-0.60;99.90;;;;;;6226042;28;20052;-78
2023/03/04 07:22:43;;;;;;;74.13;33.33;;;-0.50;99.90;;;;;;6231474;28;20057;-79
2023/03/04 07:25:45;;;;;;;76.17;32.80;;;-0.30;99.90;;;;;;6228946;28;20439;-80
2023/03/04 07:28:47;;;;;;;91.63;36.30;;;-0.10;99.90;;;;;;6227999;28;20125;-80
2023/03/04 07:31:50;;;;;;;88.83;35.57;;;0.10;99.90;;;;;;6228950;28;20042;-80
2023/03/04 07:34:52;;;;;;;93.97;40.43;;;0.30;99.90;;;;;;6227100;28;20046;-78
2023/03/04 07:37:53;;;;;;;75.73;30.50;;;0.60;99.90;;;;;;6225980;28;20045;-79
2023/03/04 07:40:56;;;;;;;79.90;39.13;;;0.80;99.90;;;;;;6225544;28;20042;-79
2023/03/04 07:43:58;;;;;;;83.77;33.57;;;1.00;99.90;;;;;;6227636;28;20045;-79
2023/03/04 07:47:01;;;;;;;92.37;37.43;;;1.30;99.90;;;;;;6237592;28;20133;-79
2023/03/04 07:50:03;;;;;;;77.47;35.53;;;1.50;99.90;;;;;;6227100;28;20381;-78
2023/03/04 07:53:05;;;;;;;90.97;41.30;;;1.60;99.90;;;;;;6225738;28;20050;-79
2023/03/04 07:56:11;;;;;;;73.15;33.75;;;1.90;99.90;;;;;;6226344;28;20056;-79
2023/03/04 07:59:13;;;;;;;71.05;34.63;;;2.00;99.90;;;;;;6225603;28;20042;-78
2023/03/04 08:02:16;;;;;;;70.00;32.47;;;2.10;99.90;;;;;;6228276;28;20045;-78
2023/03/04 08:05:17;;;;;;;66.50;35.47;;;2.20;99.90;;;;;;6224928;28;20145;-79
2023/03/04 08:08:19;;;;;;;77.45;38.85;;;2.20;99.90;;;;;;6225069;28;20038;-79
2023/03/04 08:11:21;;;;;;;67.85;33.10;;;2.30;99.90;;;;;;6225274;28;20053;-79
2023/03/04 08:14:23;;;;;;;87.68;36.03;;;2.30;99.90;;;;;;6227695;28;20054;-78
2023/03/04 08:17:28;;;;;;;82.72;33.30;;;2.50;99.90;;;;;;6225927;28;20056;-79
2023/03/04 08:20:30;;;;;;;72.78;32.50;;;2.60;99.90;;;;;;6226197;28;20050;-81
2023/03/04 08:23:31;;;;;;;79.20;38.58;;;2.60;99.90;;;;;;6225049;28;20045;-81
2023/03/04 08:26:37;;;;;;;70.78;33.75;;;2.70;99.90;;;;;;6226630;28;20077;-80
2023/03/04 08:29:38;;;;;;;71.55;32.15;;;2.80;99.90;;;;;;6225343;28;20366;-79
2023/03/04 08:32:41;;;;;;;62.60;33.13;;;2.90;99.90;;;;;;6225231;28;20069;-78
2023/03/04 08:35:43;;;;;;;70.65;30.95;;;2.90;99.90;;;;;;6224998;28;20049;-80
2023/03/04 08:38:45;;;;;;;65.55;33.53;;;3.00;99.90;;;;;;6226404;28;20061;-79
2023/03/04 08:41:47;;;;;;;64.22;32.55;;;3.10;99.90;;;;;;6225547;28;20050;-81
2023/03/04 08:44:48;;;;;;;61.78;30.35;;;3.40;99.90;;;;;;6225464;28;20042;-81
2023/03/04 08:47:52;;;;;;;54.28;28.60;;;3.50;99.90;;;;;;6225197;28;20053;-80
2023/03/04 08:50:54;;;;;;;57.25;29.67;;;3.60;99.90;;;;;;6226015;28;20109;-81
2023/03/04 08:53:55;;;;;;;63.63;32.60;;;3.70;99.90;;;;;;6228211;28;20050;-80
2023/03/04 08:56:57;;;;;;;52.38;28.17;;;3.90;99.90;;;;;;6228559;28;20049;-80
2023/03/04 08:59:59;;;;;;;55.13;28.75;;;4.00;99.90;;;;;;6230698;28;20524;-82
2023/03/04 09:03:02;;;;;;;59.83;29.27;;;4.20;99.90;;;;;;6229321;28;20049;-81
2023/03/04 09:06:05;;;;;;;58.15;30.50;;;4.40;99.90;;;;;;6230988;28;20084;-80
2023/03/04 09:09:07;;;;;;;56.92;30.35;;;4.50;99.90;;;;;;6229530;28;20049;-82
2023/03/04 09:12:09;;;;;;;49.85;29.35;;;4.70;99.90;;;;;;6229163;28;20412;-82
2023/03/04 09:15:11;;;;;;;50.42;28.50;;;4.90;99.90;;;;;;6228652;28;20511;-82
2023/03/04 09:18:15;;;;;;;55.08;27.95;;;5.20;99.90;;;;;;6238188;23;20051;-79
2023/03/04 09:21:17;;;;;;;57.40;28.48;;;5.30;99.90;;;;;;6202209;28;20307;-78
2023/03/04 09:24:18;;;;;;;46.08;27.48;;;5.40;99.90;;;;;;6191702;28;20057;-79
2023/03/04 09:27:21;;;;;;;42.78;28.45;;;5.60;99.90;;;;;;6165051;28;20054;-79
2023/03/04 09:30:34;;;;;;;58.58;32.63;;;5.80;99.90;;;;;;6174967;28;20054;-80
2023/03/04 09:33:40;;;;;;;54.50;31.85;;;5.90;99.90;;;;;;6164826;28;20070;-79
2023/03/04 09:36:42;;;;;;;55.75;32.42;;;5.90;99.90;;;;;;6176662;28;20090;-79
2023/03/04 09:39:45;;;;;;;73.18;48.78;;;6.00;99.90;;;;;;6184462;28;20054;-80
2023/03/04 09:46:28;;;;;;;67.20;51.35;;;6.00;99.90;;;;;;6163399;28;20038;-79
2023/03/04 09:49:34;;;;;;;52.08;30.33;;;6.20;99.90;;;;;;6164102;28;20058;-79
2023/03/04 09:52:54;;;;;;;55.38;33.00;;;6.20;99.90;;;;;;6157573;28;20060;-79
2023/03/04 09:55:58;;;;;;;58.10;33.95;;;6.20;99.90;;;;;;6152553;28;20066;-79
2023/03/04 09:59:09;;;;;;;52.25;31.13;;;6.40;99.90;;;;;;6170380;28;20051;-80
2023/03/04 10:02:28;;;;;;;55.08;32.05;;;6.50;99.90;;;;;;6177742;28;20062;-79
2023/03/04 10:05:42;;;;;;;52.25;33.05;;;6.60;99.90;;;;;;6164807;28;20043;-80
2023/03/04 10:08:52;;;;;;;56.30;34.47;;;6.70;99.90;;;;;;6172314;28;20477;-80
2023/03/04 10:12:03;;;;;;;56.33;32.65;;;7.00;99.90;;;;;;6174962;28;20054;-79
2023/03/04 10:15:17;;;;;;;57.78;29.90;;;7.10;99.90;;;;;;6186824;28;20052;-79
2023/03/04 10:18:36;;;;;;;54.58;32.58;;;7.30;99.90;;;;;;6190240;28;20061;-80
2023/03/04 10:21:44;;;;;;;54.90;30.33;;;7.40;99.90;;;;;;6181740;28;20047;-80
2023/03/04 10:24:47;;;;;;;54.25;35.33;;;7.60;99.90;;;;;;6183339;28;20460;-79
2023/03/04 10:27:55;;;;;;;59.67;33.03;;;7.70;99.90;;;;;;6182041;28;20055;-80
2023/03/04 10:31:03;;;;;;;50.45;31.15;;;7.80;99.90;;;;;;6187449;28;20132;-80
2023/03/04 10:34:06;;;;;;;51.22;31.65;;;7.90;99.90;;;;;;6188724;28;20425;-78
2023/03/04 10:37:11;;;;;;;50.08;30.75;;;7.90;99.80;;;;;;6185966;28;20050;-79
2023/03/04 10:40:22;;;;;;;54.83;33.08;;;8.00;99.50;;;;;;6180375;28;20059;-81
2023/03/04 10:43:24;;;;;;;52.60;33.85;;;8.00;99.20;;;;;;6179061;28;20143;-80
2023/03/04 10:46:26;;;;;;;52.83;30.10;;;8.00;98.80;;;;;;6194016;28;20054;-79
2023/03/04 10:49:29;;;;;;;51.53;32.60;;;8.00;98.50;;;;;;6182603;28;20038;-79
2023/03/04 10:52:35;;;;;;;53.00;30.08;;;7.90;98.20;;;;;;6182198;28;20046;-79
2023/03/04 10:55:44;;;;;;;53.92;32.40;;;7.90;97.90;;;;;;6182370;28;20045;-80
2023/03/04 10:58:45;;;;;;;49.17;29.58;;;7.80;97.60;;;;;;6184679;28;20054;-80
2023/03/04 11:01:49;;;;;;;52.47;29.85;;;7.70;97.50;;;;;;6181868;28;20055;-80
2023/03/04 11:04:54;;;;;;;59.22;31.50;;;7.60;97.30;;;;;;6180263;28;20039;-79
2023/03/04 11:07:59;;;;;;;64.47;33.40;;;7.60;97.50;;;;;;6183645;28;20062;-79
2023/03/04 11:11:02;;;;;;;62.03;32.03;;;7.50;97.30;;;;;;6182250;28;20049;-79
2023/03/04 11:14:15;;;;;;;62.33;33.83;;;7.40;97.30;;;;;;6181929;28;20058;-79
2023/03/04 11:17:20;;;;;;;54.40;31.55;;;7.40;97.00;;;;;;6185700;28;20058;-79
2023/03/04 11:20:36;;;;;;;52.65;31.15;;;7.30;96.90;;;;;;6191072;28;20042;-80
2023/03/04 11:23:50;;;;;;;53.55;27.73;;;7.20;96.80;;;;;;6183163;28;20038;-79
2023/03/04 11:27:00;;;;;;;56.97;27.42;;;7.20;96.70;;;;;;6184664;28;20050;-80
2023/03/04 11:30:36;;;;;;;51.42;27.90;;;7.10;96.50;;;;;;6187049;28;20053;-79
2023/03/04 11:33:45;;;;;;;54.50;29.27;;;7.10;96.40;;;;;;6186189;28;20050;-80
2023/03/04 11:36:56;;;;;;;53.78;29.40;;;7.10;96.40;;;;;;6183322;28;20552;-79
2023/03/04 11:40:03;;;;;;;60.42;28.83;;;7.00;96.10;;;;;;6181641;28;20043;-79
2023/03/04 11:43:11;;;;;;;52.22;27.92;;;7.00;96.10;;;;;;6183210;28;20136;-79
2023/03/04 11:46:38;;;;;;;59.55;30.70;;;7.10;96.10;;;;;;6188745;28;20436;-79
2023/03/04 11:50:23;;;;;;;51.85;27.67;;;7.10;96.00;;;;;;6196042;28;20046;-80
2023/03/04 11:53:36;;;;;;;55.92;26.42;;;7.10;96.00;;;;;;6155057;28;20060;-79
2023/03/04 11:56:44;;;;;;;43.88;27.58;;;7.10;95.80;;;;;;6193249;28;20049;-79
2023/03/04 11:59:57;;;;;;;51.53;27.65;;;7.00;95.80;;;;;;6190652;28;20049;-79
2023/03/04 12:03:19;;;;;;;49.35;29.83;;;7.00;95.70;;;;;;6193053;28;20535;-79
2023/03/04 12:06:32;;;;;;;56.65;29.85;;;6.90;95.40;;;;;;6189406;28;20058;-77
2023/03/04 12:09:42;;;;;;;55.05;28.90;;;6.80;95.40;;;;;;6179249;28;20043;-78
2023/03/04 12:13:00;;;;;;;50.67;26.35;;;6.70;95.40;;;;;;6189312;28;20049;-80
2023/03/04 12:16:12;;;;;;;48.38;26.50;;;6.80;95.50;;;;;;6186450;28;20421;-79
2023/03/04 12:19:27;;;;;;;45.08;26.15;;;6.80;95.50;;;;;;6182487;28;20074;-80
2023/03/04 12:22:36;;;;;;;45.45;24.92;;;6.80;95.50;;;;;;6180337;28;20125;-80
2023/03/04 12:25:42;;;;;;;47.45;23.08;;;7.00;95.60;;;;;;6184317;28;20050;-80
2023/03/04 12:28:54;;;;;;;49.28;24.38;;;7.00;95.40;;;;;;6187421;28;20054;-81
2023/03/04 12:32:03;;;;;;;50.00;24.23;;;7.00;95.40;;;;;;6186344;28;20058;-80
2023/03/04 12:35:24;;;;;;;48.50;25.60;;;7.00;95.40;;;;;;6188804;28;20054;-80
2023/03/04 12:38:51;;;;;;;47.63;26.55;;;7.00;95.20;;;;;;6192231;28;20706;-79
2023/03/04 12:42:00;;;;;;;42.85;25.42;;;7.00;95.30;;;;;;6188932;28;20053;-80
2023/03/04 12:45:15;;;;;;;46.15;27.05;;;7.10;95.30;;;;;;6185137;28;20076;-79
2023/03/04 12:48:27;;;;;;;51.17;36.75;;;7.10;95.30;;;;;;6186028;28;20050;-80
2023/03/04 12:51:34;;;;;;;52.80;26.40;;;7.00;95.10;;;;;;6186690;28;20121;-79
2023/03/04 12:54:40;;;;;;;51.97;26.92;;;7.00;95.10;;;;;;6185456;28;20480;-80
2023/03/04 12:57:42;;;;;;;46.65;24.98;;;7.00;95.10;;;;;;6188549;28;20042;-80
2023/03/04 13:00:58;;;;;;;39.65;21.67;;;7.10;95.10;;;;;;6186315;28;20054;-79
2023/03/04 13:04:12;;;;;;;43.67;21.05;;;7.10;95.00;;;;;;6179018;28;20129;-80
2023/03/04 13:07:21;;;;;;;39.13;21.95;;;7.00;94.80;;;;;;6180031;28;20059;-79
2023/03/04 13:10:24;;;;;;;41.70;20.83;;;7.10;94.80;;;;;;6183342;28;20050;-80
2023/03/04 13:13:38;;;;;;;41.47;23.65;;;7.10;94.80;;;;;;6183379;28;20444;-80
2023/03/04 13:17:00;;;;;;;51.63;24.17;;;7.20;94.90;;;;;;6180547;28;20054;-80
2023/03/04 13:20:24;;;;;;;43.78;23.77;;;7.20;94.90;;;;;;6176430;28;20046;-78
2023/03/04 13:23:30;;;;;;;49.65;25.90;;;7.30;94.70;;;;;;6184554;28;20543;-78
2023/03/04 13:26:33;;;;;;;41.63;23.20;;;7.20;94.70;;;;;;6184599;28;20054;-79
2023/03/04 13:29:38;;;;;;;42.38;21.52;;;7.20;94.60;;;;;;6198527;23;20663;-78
2023/03/04 13:36:29;;;;;;;47.05;26.63;;;7.20;94.60;;;;;;6173552;28;20051;-79
2023/03/04 13:39:35;;;;;;;51.75;26.77;;;7.10;94.50;;;;;;6191957;28;20404;-78
2023/03/04 13:42:39;;;;;;;40.47;21.75;;;7.00;94.60;;;;;;6192766;28;20489;-78
2023/03/04 13:45:55;;;;;;;;;;;;;;;;;;;;;
2023/03/04 13:49:30;;;;;;;41.03;24.77;;;6.90;94.90;;;;;;6178613;28;20059;-79
2023/03/04 13:52:43;;;;;;;41.72;25.52;;;6.90;94.60;;;;;;6194240;28;20178;-79
2023/03/04 13:56:00;;;;;;;41.13;25.70;;;6.90;94.60;;;;;;6193398;28;23702;-78
2023/03/04 13:59:17;;;;;;;41.67;22.70;;;7.00;94.60;;;;;;6192483;28;20049;-78
2023/03/04 14:02:21;;;;;;;41.45;22.58;;;7.00;94.50;;;;;;6193615;28;20049;-79
2023/03/04 14:05:23;;;;;;;33.72;20.63;;;7.10;94.50;;;;;;6194499;28;20046;-78
2023/03/04 14:08:26;;;;;;;45.40;23.85;;;7.10;94.40;;;;;;6192206;28;20045;-79
2023/03/04 14:11:37;;;;;;;47.83;23.55;;;7.10;94.40;;;;;;6187663;28;20169;-78
2023/03/04 14:14:44;;;;;;;41.35;21.88;;;7.10;94.40;;;;;;6167580;28;20043;-78
2023/03/04 14:17:50;;;;;;;53.67;22.30;;;7.20;94.40;;;;;;6190413;28;20133;-78
2023/03/04 14:20:57;;;;;;;39.08;18.40;;;7.20;94.30;;;;;;6190516;28;20049;-78
2023/03/04 14:24:06;;;;;;;38.22;19.73;;;7.20;94.20;;;;;;6178696;28;20070;-78
2023/03/04 14:27:13;;;;;;;39.03;18.92;;;7.20;94.20;;;;;;6154839;28;20051;-77
2023/03/04 14:30:26;;;;;;;34.72;19.45;;;7.10;94.20;;;;;;6190381;28;20042;-78
2023/03/04 14:33:29;;;;;;;40.88;18.55;;;7.20;94.20;;;;;;6188729;28;20465;-79
2023/03/04 14:36:36;;;;;;;39.03;17.88;;;7.20;94.00;;;;;;6191023;28;20039;-78
2023/03/04 14:39:40;;;;;;;35.22;19.60;;;7.20;94.00;;;;;;6191416;28;20054;-79
2023/03/04 14:42:48;;;;;;;34.40;19.58;;;7.20;94.00;;;;;;6192173;28;20517;-78
2023/03/04 14:45:53;;;;;;;37.97;18.30;;;7.10;94.00;;;;;;6189201;28;20058;-79
2023/03/04 14:48:56;;;;;;;37.55;19.25;;;7.10;94.00;;;;;;6188475;28;20050;-78
2023/03/04 14:51:57;;;;;;;33.78;17.75;;;7.10;94.00;;;;;;6193820;28;20050;-81
2023/03/04 14:55:04;;;;;;;33.58;16.20;;;7.10;94.00;;;;;;6193506;28;20527;-80
2023/03/04 14:58:08;;;;;;;38.38;18.02;;;7.10;94.00;;;;;;6196489;28;20467;-80
2023/03/04 15:01:16;;;;;;;30.02;14.52;;;7.10;94.00;;;;;;6191587;28;20042;-79
2023/03/04 15:04:20;;;;;;;29.35;17.30;;;7.00;94.00;;;;;;6193013;28;20428;-78
2023/03/04 15:07:28;;;;;;;27.85;16.48;;;7.00;94.00;;;;;;6189885;28;20050;-78
2023/03/04 15:10:33;;;;;;;33.65;17.40;;;6.90;94.00;;;;;;6190291;28;20058;-78
2023/03/04 15:13:40;;;;;;;27.27;16.40;;;6.90;94.00;;;;;;6189859;28;20054;-78
2023/03/04 15:16:56;;;;;;;27.75;14.73;;;6.90;94.00;;;;;;6189943;28;20077;-78
2023/03/04 15:20:02;;;;;;;37.50;19.10;;;6.80;93.90;;;;;;6190250;28;23003;-78
2023/03/04 15:23:07;;;;;;;31.63;20.58;;;6.80;93.90;;;;;;6189411;28;20568;-78
2023/03/04 15:26:11;;;;;;;32.92;19.33;;;6.70;93.90;;;;;;6196460;28;20127;-78
2023/03/04 15:29:15;;;;;;;45.38;25.63;;;6.70;93.90;;;;;;6171742;28;20074;-78
2023/03/04 15:32:17;;;;;;;39.13;22.83;;;6.70;93.90;;;;;;6178856;28;20058;-78
2023/03/04 15:35:20;;;;;;;52.25;28.70;;;6.70;93.90;;;;;;6194672;28;20062;-78
2023/03/04 15:38:23;;;;;;;61.60;31.73;;;6.70;94.00;;;;;;6172399;28;20101;-77
2023/03/04 15:41:27;;;;;;;42.58;24.17;;;6.70;94.00;;;;;;6177255;28;20054;-78
2023/03/04 15:44:28;;;;;;;73.65;38.95;;;6.70;94.00;;;;;;6173894;28;20054;-78
2023/03/04 15:47:30;;;;;;;39.53;20.55;;;6.60;94.00;;;;;;6178091;28;20417;-77
2023/03/04 15:50:43;;;;;;;38.05;26.08;;;6.60;94.00;;;;;;6176834;28;20039;-78
2023/03/04 15:53:48;;;;;;;34.33;21.73;;;6.60;94.00;;;;;;6162667;28;20054;-78
2023/03/04 15:56:51;;;;;;;27.80;16.73;;;6.60;94.00;;;;;;6170575;28;20074;-80